createdAt,value
2023-03-23T16:01:46.608Z,55.36
2023-03-23T16:06:52.151Z,56.11
2023-03-23T16:11:56.804Z,56.69
2023-03-23T16:17:00.739Z,56.86
2023-03-23T16:22:05.808Z,57.36
2023-03-23T16:27:11.813Z,57.89
2023-03-23T16:32:15.984Z,58.32
2023-03-23T16:37:21.804Z,58.75
2023-03-23T16:42:26.250Z,59.42
2023-03-23T16:47:30.612Z,59.63
2023-03-23T16:52:34.843Z,60.38
2023-03-23T16:57:54.189Z,60.40
2023-03-23T17:03:02.480Z,60.62
2023-03-23T17:08:06.748Z,61.06
2023-03-23T17:13:11.383Z,61.80
2023-03-23T17:18:16.849Z,61.86
2023-03-23T17:23:20.924Z,62.08
2023-03-23T17:28:24.821Z,62.29
2023-03-23T17:33:29.347Z,62.58
2023-03-23T17:38:34.171Z,62.86
2023-03-23T17:43:41.761Z,63.70
2023-03-23T17:48:48.254Z,63.80
2023-03-23T17:53:53.495Z,64.04
2023-03-23T17:58:58.157Z,64.06
2023-03-23T18:04:05.769Z,63.98
2023-03-23T18:09:11.036Z,63.70
2023-03-23T18:14:16.481Z,63.77
2023-03-23T18:19:21.208Z,63.78
2023-03-23T18:24:26.928Z,63.45
2023-03-23T18:29:34.539Z,63.62
2023-03-23T18:34:45.312Z,63.49
2023-03-23T18:39:51.460Z,63.57
2023-03-23T18:45:00.946Z,63.59
2023-03-23T18:50:08.679Z,63.49
2023-03-23T18:55:18.133Z,63.44
2023-03-23T19:00:26.779Z,63.43
2023-03-23T19:05:47.790Z,63.39
2023-03-23T19:11:05.653Z,63.42
2023-03-23T19:16:12.977Z,63.44
2023-03-23T19:21:25.908Z,63.54
2023-03-23T19:26:41.868Z,63.74
2023-03-23T19:31:50.543Z,63.93
2023-03-23T19:37:05.429Z,63.86
2023-03-23T19:42:18.052Z,63.97
2023-03-23T19:47:23.015Z,63.99
2023-03-23T19:52:29.517Z,64.11
2023-03-23T19:57:36.063Z,64.01
2023-03-23T20:02:42.125Z,64.12
2023-03-23T20:07:51.734Z,64.25
2023-03-23T20:13:02.452Z,64.40
2023-03-23T20:18:09.781Z,64.60
2023-03-23T20:23:19.364Z,64.79
2023-03-23T20:28:25.505Z,64.68
2023-03-23T20:33:40.913Z,64.78
2023-03-23T20:38:48.332Z,65.04
2023-03-23T20:43:54.382Z,65.23
2023-03-23T20:49:01.584Z,65.25
2023-03-23T20:54:07.407Z,65.51
2023-03-23T20:59:14.500Z,65.72
2023-03-23T21:04:23.897Z,66.04
2023-03-23T21:09:30.755Z,66.51
2023-03-23T21:14:39.496Z,66.72
2023-03-23T21:19:53.182Z,67.05
2023-03-23T21:25:03.042Z,67.54
2023-03-23T21:30:08.326Z,67.96
2023-03-23T21:35:13.114Z,68.42
2023-03-23T21:40:18.221Z,68.43
2023-03-23T21:45:22.201Z,68.78
2023-03-23T21:50:26.204Z,69.06
2023-03-23T21:55:33.966Z,69.22
2023-03-23T22:00:38.224Z,69.59
2023-03-23T22:05:43.111Z,69.88
2023-03-23T22:11:01.128Z,70.05
2023-03-23T22:16:18.222Z,70.08
2023-03-23T22:21:26.265Z,70.22
2023-03-23T22:26:30.995Z,70.54
2023-03-23T22:31:40.001Z,71.24
2023-03-23T22:36:43.861Z,72.04
2023-03-23T22:41:48.301Z,72.31
2023-03-23T22:46:53.448Z,73.02
2023-03-23T22:51:58.049Z,72.91
2023-03-23T22:57:02.522Z,73.13
2023-03-23T23:02:07.372Z,73.43
2023-03-23T23:07:14.784Z,73.72
2023-03-23T23:12:20.535Z,73.39
2023-03-23T23:17:27.548Z,73.64
2023-03-23T23:22:32.247Z,74.91
2023-03-23T23:27:37.513Z,74.99
2023-03-23T23:32:43.168Z,75.84
2023-03-23T23:37:49.022Z,75.96
2023-03-23T23:42:54.111Z,75.68
2023-03-23T23:47:58.669Z,75.19
2023-03-23T23:53:02.804Z,74.37
2023-03-23T23:58:06.762Z,74.46
